sensor_id;sensor_type;location;lat;lon;timestamp;P1;durP1;ratioP1;P2;durP2;ratioP2
29814;SDS011;16708;50.426;7.664;2022-10-26T00:01:15;6.50;;;1.30;;
29814;SDS011;16708;50.426;7.664;2022-10-26T00:15:54;5.50;;;1.90;;
29814;SDS011;16708;50.426;7.664;2022-10-26T00:30:32;6.40;;;1.60;;
29814;SDS011;16708;50.426;7.664;2022-10-26T00:45:09;4.90;;;1.20;;
29814;SDS011;16708;50.426;7.664;2022-10-26T00:59:47;3.20;;;1.10;;
29814;SDS011;16708;50.426;7.664;2022-10-26T01:14:25;5.30;;;1.20;;
29814;SDS011;16708;50.426;7.664;2022-10-26T01:43:40;7.00;;;2.10;;
29814;SDS011;16708;50.426;7.664;2022-10-26T01:58:18;6.70;;;1.90;;
29814;SDS011;16708;50.426;7.664;2022-10-26T02:12:57;5.60;;;1.70;;
29814;SDS011;16708;50.426;7.664;2022-10-26T02:27:32;5.60;;;2.10;;
29814;SDS011;16708;50.426;7.664;2022-10-26T02:42:11;10.00;;;2.50;;
29814;SDS011;16708;50.426;7.664;2022-10-26T02:56:48;9.90;;;3.50;;
29814;SDS011;16708;50.426;7.664;2022-10-26T03:11:28;9.10;;;3.00;;
29814;SDS011;16708;50.426;7.664;2022-10-26T03:26:04;7.10;;;3.00;;
29814;SDS011;16708;50.426;7.664;2022-10-26T03:40:36;9.60;;;3.80;;
29814;SDS011;16708;50.426;7.664;2022-10-26T03:55:14;11.30;;;3.50;;
29814;SDS011;16708;50.426;7.664;2022-10-26T04:09:49;11.60;;;3.50;;
29814;SDS011;16708;50.426;7.664;2022-10-26T04:24:27;14.00;;;3.50;;
29814;SDS011;16708;50.426;7.664;2022-10-26T04:39:06;12.70;;;4.00;;
29814;SDS011;16708;50.426;7.664;2022-10-26T04:53:45;9.30;;;3.70;;
29814;SDS011;16708;50.426;7.664;2022-10-26T05:08:24;10.30;;;4.50;;
29814;SDS011;16708;50.426;7.664;2022-10-26T05:23:01;12.60;;;5.40;;
29814;SDS011;16708;50.426;7.664;2022-10-26T05:37:39;15.70;;;5.20;;
29814;SDS011;16708;50.426;7.664;2022-10-26T05:52:15;17.20;;;4.60;;
29814;SDS011;16708;50.426;7.664;2022-10-26T06:06:54;11.30;;;4.20;;
29814;SDS011;16708;50.426;7.664;2022-10-26T06:21:32;11.60;;;4.20;;
29814;SDS011;16708;50.426;7.664;2022-10-26T06:36:10;14.90;;;3.70;;
29814;SDS011;16708;50.426;7.664;2022-10-26T06:50:46;9.80;;;3.20;;
29814;SDS011;16708;50.426;7.664;2022-10-26T07:05:26;7.40;;;2.40;;
29814;SDS011;16708;50.426;7.664;2022-10-26T07:20:05;7.90;;;2.40;;
29814;SDS011;16708;50.426;7.664;2022-10-26T07:34:46;8.20;;;2.70;;
29814;SDS011;16708;50.426;7.664;2022-10-26T07:49:25;6.70;;;2.10;;
29814;SDS011;16708;50.426;7.664;2022-10-26T08:04:04;4.70;;;1.70;;
29814;SDS011;16708;50.426;7.664;2022-10-26T08:18:42;10.50;;;2.20;;
29814;SDS011;16708;50.426;7.664;2022-10-26T08:33:23;5.30;;;2.20;;
29814;SDS011;16708;50.426;7.664;2022-10-26T08:48:11;8.40;;;1.70;;
29814;SDS011;16708;50.426;7.664;2022-10-26T09:02:52;8.70;;;1.60;;
29814;SDS011;16708;50.426;7.664;2022-10-26T09:32:10;6.40;;;1.70;;
29814;SDS011;16708;50.426;7.664;2022-10-26T09:46:43;5.80;;;1.60;;
29814;SDS011;16708;50.426;7.664;2022-10-26T10:01:22;5.10;;;1.80;;
29814;SDS011;16708;50.426;7.664;2022-10-26T10:30:45;5.50;;;1.70;;
29814;SDS011;16708;50.426;7.664;2022-10-26T10:45:25;7.50;;;1.80;;
29814;SDS011;16708;50.426;7.664;2022-10-26T10:55:20;4.60;;;1.80;;
29814;SDS011;16708;50.426;7.664;2022-10-26T11:05:12;9.80;;;2.20;;
29814;SDS011;16708;50.426;7.664;2022-10-26T11:10:08;8.70;;;1.80;;
29814;SDS011;16708;50.426;7.664;2022-10-26T11:15:01;6.40;;;1.90;;
29814;SDS011;16708;50.426;7.664;2022-10-26T11:29:23;7.10;;;1.80;;
29814;SDS011;16708;50.426;7.664;2022-10-26T11:34:18;5.20;;;1.60;;
29814;SDS011;16708;50.426;7.664;2022-10-26T11:39:13;5.60;;;1.80;;
29814;SDS011;16708;50.426;7.664;2022-10-26T11:44:07;8.50;;;1.80;;
29814;SDS011;16708;50.426;7.664;2022-10-26T11:58:53;4.80;;;1.60;;
29814;SDS011;16708;50.426;7.664;2022-10-26T12:03:48;6.10;;;1.70;;
29814;SDS011;16708;50.426;7.664;2022-10-26T12:08:42;6.10;;;1.70;;
29814;SDS011;16708;50.426;7.664;2022-10-26T12:13:37;9.30;;;1.60;;
29814;SDS011;16708;50.426;7.664;2022-10-26T12:18:32;5.00;;;1.40;;
29814;SDS011;16708;50.426;7.664;2022-10-26T12:23:27;7.80;;;1.90;;
29814;SDS011;16708;50.426;7.664;2022-10-26T12:33:18;8.70;;;1.90;;
29814;SDS011;16708;50.426;7.664;2022-10-26T12:43:07;5.40;;;1.70;;
29814;SDS011;16708;50.426;7.664;2022-10-26T12:57:53;4.50;;;1.80;;
29814;SDS011;16708;50.426;7.664;2022-10-26T13:07:42;6.00;;;1.80;;
29814;SDS011;16708;50.426;7.664;2022-10-26T13:12:36;5.90;;;1.50;;
29814;SDS011;16708;50.426;7.664;2022-10-26T13:17:30;5.10;;;1.70;;
29814;SDS011;16708;50.426;7.664;2022-10-26T13:22:24;6.80;;;1.90;;
29814;SDS011;16708;50.426;7.664;2022-10-26T13:32:16;7.10;;;1.60;;
29814;SDS011;16708;50.426;7.664;2022-10-26T13:37:07;6.60;;;1.60;;
29814;SDS011;16708;50.426;7.664;2022-10-26T13:42:03;6.50;;;1.60;;
29814;SDS011;16708;50.426;7.664;2022-10-26T13:46:55;8.50;;;2.00;;
29814;SDS011;16708;50.426;7.664;2022-10-26T13:51:49;3.10;;;1.40;;
29814;SDS011;16708;50.426;7.664;2022-10-26T14:01:38;4.00;;;1.30;;
29814;SDS011;16708;50.426;7.664;2022-10-26T14:06:33;3.90;;;1.20;;
29814;SDS011;16708;50.426;7.664;2022-10-26T14:11:27;4.80;;;1.20;;
29814;SDS011;16708;50.426;7.664;2022-10-26T14:16:22;6.60;;;1.50;;
29814;SDS011;16708;50.426;7.664;2022-10-26T14:21:17;4.50;;;1.40;;
29814;SDS011;16708;50.426;7.664;2022-10-26T14:31:06;6.30;;;1.50;;
29814;SDS011;16708;50.426;7.664;2022-10-26T14:36:01;4.90;;;1.40;;
29814;SDS011;16708;50.426;7.664;2022-10-26T14:40:55;5.10;;;1.40;;
29814;SDS011;16708;50.426;7.664;2022-10-26T14:45:49;5.00;;;1.30;;
29814;SDS011;16708;50.426;7.664;2022-10-26T14:50:41;5.00;;;1.40;;
29814;SDS011;16708;50.426;7.664;2022-10-26T14:55:34;6.60;;;1.30;;
29814;SDS011;16708;50.426;7.664;2022-10-26T15:00:28;5.00;;;1.20;;
29814;SDS011;16708;50.426;7.664;2022-10-26T15:05:22;4.30;;;1.40;;
29814;SDS011;16708;50.426;7.664;2022-10-26T15:15:11;4.60;;;1.20;;
29814;SDS011;16708;50.426;7.664;2022-10-26T15:20:05;5.80;;;1.30;;
29814;SDS011;16708;50.426;7.664;2022-10-26T15:25:00;3.70;;;1.30;;
29814;SDS011;16708;50.426;7.664;2022-10-26T15:39:41;6.10;;;1.40;;
29814;SDS011;16708;50.426;7.664;2022-10-26T15:44:36;6.00;;;1.10;;
29814;SDS011;16708;50.426;7.664;2022-10-26T15:49:30;3.70;;;1.40;;
29814;SDS011;16708;50.426;7.664;2022-10-26T15:54:24;4.00;;;1.20;;
29814;SDS011;16708;50.426;7.664;2022-10-26T15:59:19;4.30;;;1.20;;
29814;SDS011;16708;50.426;7.664;2022-10-26T16:04:13;5.20;;;1.10;;
29814;SDS011;16708;50.426;7.664;2022-10-26T16:09:07;4.30;;;1.20;;
29814;SDS011;16708;50.426;7.664;2022-10-26T16:14:01;4.80;;;1.00;;
29814;SDS011;16708;50.426;7.664;2022-10-26T16:18:55;6.00;;;1.20;;
29814;SDS011;16708;50.426;7.664;2022-10-26T16:23:49;6.00;;;1.30;;
29814;SDS011;16708;50.426;7.664;2022-10-26T16:28:42;5.30;;;1.30;;
29814;SDS011;16708;50.426;7.664;2022-10-26T16:33:37;5.60;;;1.20;;
29814;SDS011;16708;50.426;7.664;2022-10-26T16:38:31;8.80;;;1.30;;
29814;SDS011;16708;50.426;7.664;2022-10-26T16:43:22;3.60;;;1.10;;
29814;SDS011;16708;50.426;7.664;2022-10-26T16:48:17;4.30;;;1.10;;
29814;SDS011;16708;50.426;7.664;2022-10-26T16:53:10;8.60;;;1.30;;
29814;SDS011;16708;50.426;7.664;2022-10-26T16:58:04;3.20;;;1.40;;
29814;SDS011;16708;50.426;7.664;2022-10-26T17:02:58;6.80;;;1.50;;
29814;SDS011;16708;50.426;7.664;2022-10-26T17:07:51;7.00;;;2.00;;
29814;SDS011;16708;50.426;7.664;2022-10-26T17:12:46;4.60;;;1.70;;
29814;SDS011;16708;50.426;7.664;2022-10-26T17:17:40;4.30;;;2.20;;
29814;SDS011;16708;50.426;7.664;2022-10-26T17:22:35;4.00;;;1.60;;
29814;SDS011;16708;50.426;7.664;2022-10-26T17:27:30;5.40;;;1.30;;
29814;SDS011;16708;50.426;7.664;2022-10-26T17:32:21;5.70;;;1.60;;
29814;SDS011;16708;50.426;7.664;2022-10-26T17:37:16;6.20;;;1.30;;
29814;SDS011;16708;50.426;7.664;2022-10-26T17:42:10;4.70;;;1.50;;
29814;SDS011;16708;50.426;7.664;2022-10-26T17:47:04;5.60;;;2.70;;
29814;SDS011;16708;50.426;7.664;2022-10-26T17:51:59;9.80;;;3.90;;
29814;SDS011;16708;50.426;7.664;2022-10-26T17:56:53;8.50;;;3.40;;
29814;SDS011;16708;50.426;7.664;2022-10-26T18:01:48;7.70;;;2.90;;
29814;SDS011;16708;50.426;7.664;2022-10-26T18:06:42;7.30;;;2.20;;
29814;SDS011;16708;50.426;7.664;2022-10-26T18:11:37;10.50;;;3.40;;
29814;SDS011;16708;50.426;7.664;2022-10-26T18:16:31;7.90;;;3.40;;
29814;SDS011;16708;50.426;7.664;2022-10-26T18:21:23;7.50;;;2.80;;
29814;SDS011;16708;50.426;7.664;2022-10-26T18:26:17;7.80;;;4.30;;
29814;SDS011;16708;50.426;7.664;2022-10-26T18:31:11;8.30;;;3.70;;
29814;SDS011;16708;50.426;7.664;2022-10-26T18:36:05;7.00;;;3.20;;
29814;SDS011;16708;50.426;7.664;2022-10-26T18:40:59;8.00;;;2.20;;
29814;SDS011;16708;50.426;7.664;2022-10-26T18:45:54;9.00;;;3.30;;
29814;SDS011;16708;50.426;7.664;2022-10-26T18:50:50;7.00;;;3.10;;
29814;SDS011;16708;50.426;7.664;2022-10-26T18:55:40;5.70;;;2.60;;
29814;SDS011;16708;50.426;7.664;2022-10-26T19:00:32;6.20;;;2.70;;
29814;SDS011;16708;50.426;7.664;2022-10-26T19:05:24;9.60;;;3.50;;
29814;SDS011;16708;50.426;7.664;2022-10-26T19:10:19;9.00;;;2.80;;
29814;SDS011;16708;50.426;7.664;2022-10-26T19:15:13;11.50;;;2.40;;
29814;SDS011;16708;50.426;7.664;2022-10-26T19:20:05;11.00;;;2.80;;
29814;SDS011;16708;50.426;7.664;2022-10-26T19:24:59;9.40;;;2.80;;
29814;SDS011;16708;50.426;7.664;2022-10-26T19:29:54;9.50;;;3.10;;
29814;SDS011;16708;50.426;7.664;2022-10-26T19:34:48;8.80;;;3.70;;
29814;SDS011;16708;50.426;7.664;2022-10-26T19:39:42;10.30;;;4.20;;
29814;SDS011;16708;50.426;7.664;2022-10-26T19:44:37;8.10;;;4.30;;
29814;SDS011;16708;50.426;7.664;2022-10-26T19:49:31;7.20;;;3.80;;
29814;SDS011;16708;50.426;7.664;2022-10-26T19:54:25;7.70;;;3.60;;
29814;SDS011;16708;50.426;7.664;2022-10-26T19:59:20;8.00;;;3.10;;
29814;SDS011;16708;50.426;7.664;2022-10-26T20:04:14;7.40;;;2.40;;
29814;SDS011;16708;50.426;7.664;2022-10-26T20:09:09;6.40;;;2.70;;
29814;SDS011;16708;50.426;7.664;2022-10-26T20:14:03;7.90;;;2.20;;
29814;SDS011;16708;50.426;7.664;2022-10-26T20:18:57;8.70;;;2.10;;
29814;SDS011;16708;50.426;7.664;2022-10-26T20:23:51;8.60;;;2.20;;
29814;SDS011;16708;50.426;7.664;2022-10-26T20:28:46;6.90;;;2.30;;
29814;SDS011;16708;50.426;7.664;2022-10-26T20:33:41;8.50;;;2.60;;
29814;SDS011;16708;50.426;7.664;2022-10-26T20:38:35;9.90;;;2.20;;
29814;SDS011;16708;50.426;7.664;2022-10-26T20:43:30;6.10;;;2.20;;
29814;SDS011;16708;50.426;7.664;2022-10-26T20:48:23;6.10;;;2.40;;
29814;SDS011;16708;50.426;7.664;2022-10-26T20:53:17;7.70;;;2.90;;
29814;SDS011;16708;50.426;7.664;2022-10-26T20:58:12;8.20;;;3.00;;
29814;SDS011;16708;50.426;7.664;2022-10-26T21:03:06;6.70;;;2.60;;
29814;SDS011;16708;50.426;7.664;2022-10-26T21:08:01;13.10;;;4.50;;
29814;SDS011;16708;50.426;7.664;2022-10-26T21:12:55;7.50;;;2.40;;
29814;SDS011;16708;50.426;7.664;2022-10-26T21:17:50;10.00;;;2.90;;
29814;SDS011;16708;50.426;7.664;2022-10-26T21:22:45;10.20;;;3.40;;
29814;SDS011;16708;50.426;7.664;2022-10-26T21:27:39;12.50;;;3.00;;
29814;SDS011;16708;50.426;7.664;2022-10-26T21:32:34;11.10;;;3.20;;
29814;SDS011;16708;50.426;7.664;2022-10-26T21:37:28;11.00;;;3.10;;
29814;SDS011;16708;50.426;7.664;2022-10-26T21:42:23;9.80;;;3.40;;
29814;SDS011;16708;50.426;7.664;2022-10-26T21:47:18;7.90;;;2.30;;
29814;SDS011;16708;50.426;7.664;2022-10-26T21:52:12;8.70;;;2.50;;
29814;SDS011;16708;50.426;7.664;2022-10-26T21:57:07;7.60;;;2.20;;
29814;SDS011;16708;50.426;7.664;2022-10-26T22:02:02;5.30;;;2.40;;
29814;SDS011;16708;50.426;7.664;2022-10-26T22:06:56;5.90;;;2.30;;
29814;SDS011;16708;50.426;7.664;2022-10-26T22:11:51;6.60;;;2.00;;
29814;SDS011;16708;50.426;7.664;2022-10-26T22:16:44;8.10;;;2.40;;
29814;SDS011;16708;50.426;7.664;2022-10-26T22:21:39;12.80;;;2.70;;
29814;SDS011;16708;50.426;7.664;2022-10-26T22:26:34;9.70;;;2.40;;
29814;SDS011;16708;50.426;7.664;2022-10-26T22:31:27;7.00;;;2.90;;
29814;SDS011;16708;50.426;7.664;2022-10-26T22:36:22;7.10;;;2.00;;
29814;SDS011;16708;50.426;7.664;2022-10-26T22:41:17;8.70;;;2.50;;
29814;SDS011;16708;50.426;7.664;2022-10-26T22:46:11;8.40;;;2.10;;
29814;SDS011;16708;50.426;7.664;2022-10-26T22:51:05;10.30;;;2.50;;
29814;SDS011;16708;50.426;7.664;2022-10-26T22:56:03;9.30;;;2.50;;
29814;SDS011;16708;50.426;7.664;2022-10-26T23:00:54;8.60;;;2.20;;
29814;SDS011;16708;50.426;7.664;2022-10-26T23:05:48;5.30;;;2.00;;
29814;SDS011;16708;50.426;7.664;2022-10-26T23:10:43;9.30;;;2.30;;
29814;SDS011;16708;50.426;7.664;2022-10-26T23:15:38;5.80;;;1.80;;
29814;SDS011;16708;50.426;7.664;2022-10-26T23:20:33;4.80;;;1.80;;
29814;SDS011;16708;50.426;7.664;2022-10-26T23:25:27;6.90;;;1.70;;
29814;SDS011;16708;50.426;7.664;2022-10-26T23:30:20;6.80;;;2.20;;
29814;SDS011;16708;50.426;7.664;2022-10-26T23:35:15;8.60;;;3.60;;
29814;SDS011;16708;50.426;7.664;2022-10-26T23:40:09;12.90;;;3.00;;
29814;SDS011;16708;50.426;7.664;2022-10-26T23:45:03;6.80;;;2.90;;
29814;SDS011;16708;50.426;7.664;2022-10-26T23:49:57;11.80;;;3.10;;
29814;SDS011;16708;50.426;7.664;2022-10-26T23:54:52;5.90;;;2.30;;
